Time;durP1;ratioP1;P1;durP2;ratioP2;P2;SDS_P1;SDS_P2;PMS_P1;PMS_P2;Temp;Humidity;BMP_temperature;BMP_pressure;BME280_temperature;BME280_humidity;BME280_pressure;Samples;Min_cycle;Max_cycle;Signal;HPM_P1;HPM_P2
2022/07/24 00:00:16;;;;;;;6.90;2.10;;;15.70;99.90;;;;;;5038646;28;20111;-92
2022/07/24 00:02:42;;;;;;;7.93;2.05;;;15.70;99.90;;;;;;5038755;28;20353;-93
2022/07/24 00:05:08;;;;;;;2.83;2.17;;;16.00;99.90;;;;;;5021593;28;20044;-93
2022/07/24 00:07:35;;;;;;;2.58;2.05;;;15.70;99.90;;;;;;5041406;28;20041;-93
2022/07/24 00:10:02;;;;;;;3.85;2.10;;;15.70;99.90;;;;;;5046740;28;20036;-94
2022/07/24 00:12:27;;;;;;;2.15;1.80;;;15.70;99.90;;;;;;5048508;28;20143;-92
2022/07/24 00:14:54;;;;;;;5.15;1.67;;;15.70;99.90;;;;;;5031050;28;20045;-93
2022/07/24 00:17:20;;;;;;;2.53;2.03;;;16.40;99.90;;;;;;5048182;28;20160;-93
2022/07/24 00:19:45;;;;;;;5.05;2.58;;;15.70;99.90;;;;;;5030196;28;20091;-92
2022/07/24 00:22:11;;;;;;;2.72;1.90;;;16.40;99.90;;;;;;5043400;28;20048;-93
2022/07/24 00:24:37;;;;;;;4.05;2.33;;;15.60;99.90;;;;;;5022143;28;20044;-93
2022/07/24 00:27:03;;;;;;;6.75;2.53;;;16.40;99.90;;;;;;5020697;28;20041;-92
2022/07/24 00:29:28;;;;;;;2.95;2.40;;;15.60;99.90;;;;;;5038856;28;20045;-92
2022/07/24 00:31:54;;;;;;;3.85;2.15;;;14.80;99.90;;;;;;5037236;28;20491;-93
2022/07/24 00:34:20;;;;;;;3.47;2.17;;;15.60;99.90;;;;;;5038195;28;20478;-92
2022/07/24 00:36:46;;;;;;;3.75;2.08;;;15.60;99.90;;;;;;5037585;28;20075;-93
2022/07/24 00:39:12;;;;;;;3.60;2.70;;;15.60;99.90;;;;;;5020545;28;20127;-92
2022/07/24 00:41:38;;;;;;;3.03;2.63;;;15.60;99.90;;;;;;5037617;28;20128;-93
2022/07/24 00:44:09;;;;;;;5.10;2.83;;;16.00;99.90;;;;;;5036586;28;20036;-93
2022/07/24 00:46:37;;;;;;;5.93;2.63;;;15.50;99.90;;;;;;5038153;28;20083;-94
2022/07/24 00:49:08;;;;;;;6.55;3.83;;;15.60;99.90;;;;;;5036144;28;20059;-92
2022/07/24 00:51:35;;;;;;;4.25;3.20;;;15.60;99.90;;;;;;5038117;28;20080;-93
2022/07/24 00:54:05;;;;;;;6.88;3.65;;;16.10;99.90;;;;;;5037634;28;20063;-93
2022/07/24 00:56:31;;;;;;;4.68;3.55;;;15.50;99.90;;;;;;5036587;28;20135;-92
2022/07/24 00:58:59;;;;;;;5.20;3.38;;;15.50;99.90;;;;;;5037083;28;20078;-92
2022/07/24 01:01:25;;;;;;;5.30;3.55;;;15.70;99.90;;;;;;5035775;28;20093;-93
2022/07/24 01:03:50;;;;;;;8.10;3.72;;;15.50;99.90;;;;;;5037970;28;20057;-93
2022/07/24 01:06:16;;;;;;;12.30;3.25;;;16.60;99.90;;;;;;5035593;28;20123;-93
2022/07/24 01:08:43;;;;;;;3.58;3.00;;;15.50;99.90;;;;;;5036716;28;20037;-93
2022/07/24 01:11:10;;;;;;;7.28;3.78;;;14.60;99.90;;;;;;5036485;28;20042;-91
2022/07/24 01:13:37;;;;;;;7.03;3.42;;;15.50;99.90;;;;;;5036337;28;20041;-92
2022/07/24 01:16:03;;;;;;;5.80;2.80;;;15.40;99.90;;;;;;5038533;28;20041;-92
2022/07/24 01:18:29;;;;;;;4.13;3.42;;;15.40;99.90;;;;;;5039614;28;20071;-92
2022/07/24 01:20:57;;;;;;;6.82;3.90;;;15.50;99.90;;;;;;5021921;28;20049;-90
2022/07/24 01:23:23;;;;;;;3.90;3.38;;;15.40;99.90;;;;;;5037080;28;20036;-92
2022/07/24 01:25:49;;;;;;;4.93;3.38;;;15.40;99.90;;;;;;5048759;28;20055;-93
2022/07/24 01:28:15;;;;;;;5.95;3.28;;;15.40;99.90;;;;;;5043376;28;20048;-93
2022/07/24 01:30:41;;;;;;;4.97;3.40;;;15.50;99.90;;;;;;5040019;28;20059;-92
2022/07/24 01:33:07;;;;;;;3.10;2.80;;;15.40;99.90;;;;;;5038271;28;20086;-93
2022/07/24 01:35:33;;;;;;;3.25;2.85;;;15.40;99.90;;;;;;5036317;28;20052;-93
2022/07/24 01:37:58;;;;;;;5.38;2.75;;;16.00;99.90;;;;;;5037615;28;20044;-93
2022/07/24 01:40:24;;;;;;;6.13;2.70;;;15.50;99.90;;;;;;5020620;28;20044;-93
2022/07/24 01:42:50;;;;;;;4.38;3.00;;;15.50;99.90;;;;;;5047383;28;20041;-93
2022/07/24 01:45:16;;;;;;;5.28;3.47;;;15.50;99.90;;;;;;5049235;28;20045;-93
2022/07/24 01:47:43;;;;;;;6.00;3.50;;;15.50;99.90;;;;;;5046693;28;20045;-90
2022/07/24 01:50:10;;;;;;;4.68;3.08;;;15.40;99.90;;;;;;5039932;28;20052;-91
2022/07/24 01:52:36;;;;;;;6.32;4.00;;;15.40;99.90;;;;;;5018485;28;20082;-92
2022/07/24 01:55:02;;;;;;;6.20;4.35;;;15.40;99.90;;;;;;5036822;28;20053;-92
2022/07/24 01:57:28;;;;;;;3.63;3.05;;;15.40;99.90;;;;;;5035027;28;20043;-91
2022/07/24 01:59:54;;;;;;;4.38;3.53;;;15.70;99.90;;;;;;5019945;28;20033;-92
2022/07/24 02:02:19;;;;;;;9.90;3.60;;;15.40;99.90;;;;;;5018309;28;20051;-92
2022/07/24 02:04:45;;;;;;;7.80;3.80;;;15.40;99.90;;;;;;5018411;28;20041;-91
2022/07/24 02:07:11;;;;;;;5.35;3.20;;;15.40;99.90;;;;;;5019096;28;20048;-91
2022/07/24 02:09:37;;;;;;;3.95;3.13;;;15.40;99.90;;;;;;5017250;28;20593;-92
2022/07/24 02:12:03;;;;;;;4.18;3.75;;;15.40;99.90;;;;;;5035187;28;20047;-92
2022/07/24 02:14:28;;;;;;;5.88;3.72;;;15.30;99.90;;;;;;5034192;28;20106;-92
2022/07/24 02:16:54;;;;;;;5.90;3.33;;;15.30;99.90;;;;;;5019009;28;20045;-93
2022/07/24 02:19:20;;;;;;;6.70;3.55;;;15.30;99.90;;;;;;5017860;28;20044;-91
2022/07/24 02:21:46;;;;;;;4.72;3.33;;;15.30;99.90;;;;;;5034703;28;20040;-91
2022/07/24 02:24:11;;;;;;;7.35;4.25;;;15.30;99.90;;;;;;5035354;28;20040;-91
2022/07/24 02:26:37;;;;;;;4.97;3.28;;;14.30;99.90;;;;;;5018396;28;20546;-92
2022/07/24 02:29:03;;;;;;;7.07;4.60;;;16.00;99.90;;;;;;5021714;28;20051;-92
2022/07/24 02:31:29;;;;;;;6.72;4.38;;;15.30;99.90;;;;;;5043928;28;20040;-92
2022/07/24 02:33:54;;;;;;;4.28;3.60;;;15.30;99.90;;;;;;5040852;28;20048;-92
2022/07/24 02:36:20;;;;;;;7.45;3.67;;;15.90;99.90;;;;;;5020910;28;20042;-92
2022/07/24 02:38:46;;;;;;;5.28;3.92;;;15.30;99.90;;;;;;5033770;28;20067;-93
2022/07/24 02:41:11;;;;;;;4.70;3.75;;;15.30;99.90;;;;;;5053566;28;20050;-90
2022/07/24 02:43:37;;;;;;;5.72;4.15;;;15.20;99.90;;;;;;5050554;28;20087;-93
2022/07/24 02:46:03;;;;;;;4.72;3.50;;;15.20;99.90;;;;;;5029769;28;20040;-93
2022/07/24 02:48:29;;;;;;;7.65;3.33;;;15.20;99.90;;;;;;5049526;28;20044;-91
2022/07/24 02:50:54;;;;;;;5.63;3.65;;;15.20;99.90;;;;;;5037577;28;20051;-91
2022/07/24 02:53:20;;;;;;;4.97;3.50;;;15.80;99.90;;;;;;5034187;28;20074;-92
2022/07/24 02:55:46;;;;;;;4.65;3.25;;;15.20;99.90;;;;;;5050607;28;20048;-92
2022/07/24 02:58:12;;;;;;;3.70;3.08;;;15.20;99.90;;;;;;5022446;28;20086;-91
2022/07/24 03:00:37;;;;;;;6.07;3.88;;;15.20;99.90;;;;;;5037476;28;20133;-92
2022/07/24 03:03:03;;;;;;;5.53;3.88;;;15.20;99.90;;;;;;5042919;28;20107;-91
2022/07/24 03:05:29;;;;;;;4.82;3.72;;;15.20;99.90;;;;;;5041106;28;20068;-93
2022/07/24 03:07:55;;;;;;;5.57;3.80;;;15.90;99.90;;;;;;5042610;28;20135;-92
2022/07/24 03:10:21;;;;;;;6.90;4.00;;;15.20;99.90;;;;;;5040991;28;20044;-93
2022/07/24 03:12:47;;;;;;;7.15;4.05;;;15.20;99.90;;;;;;5042683;28;20040;-91
2022/07/24 03:15:14;;;;;;;4.88;3.45;;;15.20;99.90;;;;;;5025156;28;20036;-93
2022/07/24 03:17:51;;;;;;;4.10;3.30;;;15.20;99.90;;;;;;5042169;28;20392;-92
2022/07/24 03:20:17;;;;;;;5.75;4.00;;;15.20;99.90;;;;;;5042227;28;20040;-92
2022/07/24 03:22:44;;;;;;;6.40;3.65;;;15.20;99.90;;;;;;5041151;28;20041;-91
2022/07/24 03:25:10;;;;;;;5.57;3.22;;;15.20;99.90;;;;;;5058584;28;20044;-92
2022/07/24 03:27:37;;;;;;;3.70;3.30;;;15.20;99.90;;;;;;5041210;28;20090;-91
2022/07/24 03:30:04;;;;;;;7.30;4.15;;;15.20;99.90;;;;;;5042179;28;20040;-92
2022/07/24 03:32:30;;;;;;;7.97;4.50;;;15.20;99.90;;;;;;5026080;28;20053;-92
2022/07/24 03:34:56;;;;;;;8.20;5.93;;;15.30;99.90;;;;;;5025076;28;20044;-92
2022/07/24 03:37:22;;;;;;;7.38;4.72;;;15.20;99.90;;;;;;5024468;28;20043;-93
2022/07/24 03:39:47;;;;;;;6.28;4.40;;;15.30;99.90;;;;;;5038992;28;20051;-92
2022/07/24 03:42:13;;;;;;;6.38;4.40;;;14.50;99.90;;;;;;5023399;28;20059;-91
2022/07/24 03:44:39;;;;;;;7.78;4.13;;;15.30;99.90;;;;;;5022776;28;20333;-92
2022/07/24 03:47:05;;;;;;;4.85;4.18;;;15.40;99.90;;;;;;5024418;28;20486;-92
2022/07/24 03:49:31;;;;;;;7.43;3.92;;;15.40;99.90;;;;;;5040548;28;20064;-92
2022/07/24 03:51:57;;;;;;;8.52;4.07;;;15.50;99.90;;;;;;5023356;28;20051;-92
2022/07/24 03:54:23;;;;;;;6.28;3.67;;;15.50;99.90;;;;;;5058304;28;20418;-90
2022/07/24 03:56:49;;;;;;;5.18;4.03;;;15.50;99.90;;;;;;5022747;28;20051;-91
2022/07/24 03:59:15;;;;;;;6.32;4.00;;;15.50;99.90;;;;;;5040650;28;20558;-92
2022/07/24 04:01:41;;;;;;;6.22;3.75;;;15.60;99.90;;;;;;5038524;28;20087;-91
2022/07/24 04:04:07;;;;;;;5.95;3.67;;;15.60;99.90;;;;;;5039956;28;20041;-92
2022/07/24 04:06:34;;;;;;;5.90;3.80;;;15.70;99.90;;;;;;5040014;28;20045;-93
2022/07/24 04:09:02;;;;;;;5.90;4.40;;;15.70;99.90;;;;;;5023114;28;20037;-93
2022/07/24 04:11:28;;;;;;;4.60;3.90;;;15.80;99.90;;;;;;5040896;28;20040;-92
2022/07/24 04:13:54;;;;;;;4.50;3.67;;;15.80;99.90;;;;;;5038232;28;20523;-92
2022/07/24 04:16:20;;;;;;;4.60;3.60;;;15.80;99.90;;;;;;5024298;28;20272;-93
2022/07/24 04:18:46;;;;;;;7.63;4.20;;;15.80;99.90;;;;;;5039276;28;20047;-92
2022/07/24 04:21:12;;;;;;;7.35;3.95;;;15.70;99.90;;;;;;5041119;28;20036;-93
2022/07/24 04:23:38;;;;;;;6.25;3.90;;;15.80;99.90;;;;;;5033803;28;20122;-93
2022/07/24 04:26:04;;;;;;;4.43;3.53;;;15.90;99.90;;;;;;5033008;28;20426;-92
2022/07/24 04:28:30;;;;;;;6.88;3.85;;;15.80;99.90;;;;;;5033949;28;20484;-93
2022/07/24 04:30:56;;;;;;;6.57;3.53;;;15.80;99.90;;;;;;5031519;28;20043;-92
2022/07/24 04:33:21;;;;;;;4.90;3.92;;;15.80;99.90;;;;;;5036920;28;20107;-93
2022/07/24 04:35:47;;;;;;;4.53;3.83;;;15.80;99.90;;;;;;5035487;28;20044;-92
2022/07/24 04:38:13;;;;;;;4.57;3.63;;;15.90;99.90;;;;;;5038021;28;20043;-92
2022/07/24 04:40:39;;;;;;;8.02;3.85;;;15.80;99.90;;;;;;5036316;28;20400;-92
2022/07/24 04:43:05;;;;;;;6.68;4.13;;;16.60;99.90;;;;;;5037172;28;20372;-94
2022/07/24 04:45:31;;;;;;;5.53;3.60;;;15.90;99.90;;;;;;5020981;28;20048;-94
2022/07/24 04:47:57;;;;;;;5.53;3.47;;;16.40;99.90;;;;;;5035931;28;20040;-93
2022/07/24 04:50:22;;;;;;;3.20;2.90;;;16.10;99.90;;;;;;5020699;28;20061;-93
2022/07/24 04:52:48;;;;;;;5.80;3.72;;;16.20;99.90;;;;;;5035477;28;20040;-93
2022/07/24 04:55:14;;;;;;;4.97;3.50;;;16.30;99.90;;;;;;5037339;28;20502;-96
2022/07/24 04:57:39;;;;;;;6.40;3.60;;;16.70;99.90;;;;;;5019408;28;20569;-92
2022/07/24 05:00:08;;;;;;;5.35;4.35;;;16.30;99.90;;;;;;5036198;28;20040;-93
2022/07/24 05:02:34;;;;;;;5.22;3.50;;;16.40;99.90;;;;;;5036771;28;20052;-94
2022/07/24 05:04:59;;;;;;;7.43;3.63;;;16.50;99.90;;;;;;5035891;28;20057;-93
2022/07/24 05:07:25;;;;;;;8.23;3.92;;;16.60;99.90;;;;;;5036954;28;20052;-93
2022/07/24 05:09:51;;;;;;;4.15;3.20;;;16.70;99.90;;;;;;5034979;28;20048;-94
2022/07/24 05:12:16;;;;;;;6.82;3.67;;;16.80;99.90;;;;;;5036766;28;20043;-94
2022/07/24 05:14:42;;;;;;;5.25;3.30;;;16.90;99.90;;;;;;5019085;28;20037;-92
2022/07/24 05:17:08;;;;;;;3.47;2.92;;;17.10;99.90;;;;;;5020013;28;20051;-92
2022/07/24 05:19:33;;;;;;;6.65;3.78;;;17.30;99.90;;;;;;5020458;28;20044;-94
2022/07/24 05:21:59;;;;;;;5.43;3.40;;;17.40;99.90;;;;;;5022417;28;20043;-94
2022/07/24 05:24:25;;;;;;;6.30;3.22;;;17.40;99.90;;;;;;5025080;28;20041;-94
2022/07/24 05:26:52;;;;;;;6.85;3.30;;;17.50;99.90;;;;;;5036139;28;20088;-93
2022/07/24 05:29:18;;;;;;;7.78;3.70;;;17.60;99.90;;;;;;5042268;28;20055;-94
2022/07/24 05:31:44;;;;;;;5.13;3.80;;;17.60;99.90;;;;;;5028477;28;20048;-93
2022/07/24 05:34:09;;;;;;;5.60;3.90;;;17.70;99.90;;;;;;5030765;28;20040;-93
2022/07/24 05:36:36;;;;;;;5.22;3.08;;;17.70;99.90;;;;;;5042717;28;20548;-94
2022/07/24 05:39:02;;;;;;;3.97;3.08;;;17.70;99.90;;;;;;5040265;28;20040;-92
2022/07/24 05:41:28;;;;;;;9.48;3.90;;;17.80;99.90;;;;;;5042364;28;20044;-93
2022/07/24 05:43:54;;;;;;;4.80;4.00;;;17.80;99.90;;;;;;5036108;28;20043;-95
2022/07/24 05:46:20;;;;;;;4.95;3.70;;;17.80;99.90;;;;;;5021484;28;20155;-96
2022/07/24 05:48:46;;;;;;;6.05;4.20;;;17.90;99.90;;;;;;5035088;28;20051;-93
2022/07/24 05:51:12;;;;;;;5.53;3.80;;;17.90;99.90;;;;;;5037697;28;20112;-92
2022/07/24 05:53:38;;;;;;;5.25;3.55;;;17.90;99.90;;;;;;5036667;28;20122;-93
2022/07/24 05:56:04;;;;;;;7.97;4.07;;;17.90;99.90;;;;;;5035105;28;20087;-93
2022/07/24 05:58:30;;;;;;;8.18;4.43;;;17.90;99.90;;;;;;5036138;28;20049;-93
2022/07/24 06:00:56;;;;;;;5.13;4.03;;;17.90;99.90;;;;;;5038044;28;20450;-96
2022/07/24 06:03:21;;;;;;;5.00;4.15;;;17.90;99.90;;;;;;5040051;28;20103;-95
2022/07/24 06:05:47;;;;;;;5.13;3.70;;;17.90;99.90;;;;;;5018446;28;20088;-92
2022/07/24 06:08:13;;;;;;;7.00;4.03;;;17.90;99.90;;;;;;5035909;28;20064;-94
2022/07/24 06:10:39;;;;;;;6.57;4.00;;;17.90;99.90;;;;;;5051364;28;20083;-93
2022/07/24 06:13:05;;;;;;;7.80;4.57;;;18.00;99.90;;;;;;5034998;28;20123;-92
2022/07/24 06:15:31;;;;;;;4.68;3.97;;;18.10;99.90;;;;;;5035681;28;20111;-95
2022/07/24 06:17:57;;;;;;;5.25;4.38;;;18.30;99.90;;;;;;5017200;28;20048;-95
2022/07/24 06:20:23;;;;;;;9.18;4.97;;;18.70;99.90;;;;;;5019895;28;20479;-93
2022/07/24 06:22:49;;;;;;;6.75;4.50;;;18.60;99.90;;;;;;5033860;28;20085;-95
2022/07/24 06:25:16;;;;;;;6.63;4.60;;;18.70;99.90;;;;;;5035737;28;20036;-91
2022/07/24 06:27:43;;;;;;;9.07;5.05;;;18.80;99.90;;;;;;5033928;28;20045;-93
2022/07/24 06:30:17;;;;;;;6.63;5.82;;;18.90;99.90;;;;;;5034314;28;20158;-92
2022/07/24 06:32:44;;;;;;;6.80;5.03;;;19.10;99.90;;;;;;5034898;28;20051;-93
2022/07/24 06:35:10;;;;;;;10.93;5.65;;;19.20;99.90;;;;;;5016596;28;20044;-91
2022/07/24 06:37:36;;;;;;;9.10;6.28;;;19.30;99.90;;;;;;5036102;28;20033;-95
2022/07/24 06:40:03;;;;;;;8.93;6.30;;;19.40;99.90;;;;;;5032944;28;20048;-93
2022/07/24 06:42:29;;;;;;;9.25;5.97;;;19.50;99.90;;;;;;5037467;28;20045;-95
2022/07/24 06:44:54;;;;;;;9.73;6.15;;;19.60;99.90;;;;;;5036370;28;20044;-95
2022/07/24 06:47:20;;;;;;;8.88;6.43;;;19.70;99.90;;;;;;5019413;28;20483;-94
2022/07/24 06:49:46;;;;;;;8.20;6.80;;;19.80;99.90;;;;;;5039528;28;20078;-96
2022/07/24 06:52:12;;;;;;;10.25;7.07;;;19.90;99.90;;;;;;5040596;28;20079;-95
2022/07/24 06:54:37;;;;;;;11.05;6.57;;;20.00;99.90;;;;;;5040222;28;20048;-96
2022/07/24 06:57:10;;;;;;;11.90;8.60;;;20.10;99.90;;;;;;5022717;28;20586;-96
2022/07/24 06:59:37;;;;;;;8.90;7.13;;;19.60;99.90;;;;;;5043708;28;20454;-92
2022/07/24 07:02:06;;;;;;;10.90;7.13;;;20.30;99.90;;;;;;5044007;28;20056;-96
2022/07/24 07:04:31;;;;;;;9.82;6.60;;;20.40;99.90;;;;;;5053648;28;20052;-95
2022/07/24 07:06:57;;;;;;;10.52;7.47;;;20.50;99.90;;;;;;5050218;28;20113;-93
2022/07/24 07:09:23;;;;;;;9.40;7.22;;;20.50;99.90;;;;;;5042627;28;20043;-94
2022/07/24 07:11:49;;;;;;;10.13;7.50;;;20.60;99.90;;;;;;5038053;28;20079;-94
2022/07/24 07:14:14;;;;;;;12.80;7.53;;;20.80;99.90;;;;;;5042773;28;20040;-96
2022/07/24 07:16:40;;;;;;;9.23;6.55;;;20.80;99.90;;;;;;5021958;28;20143;-92
2022/07/24 07:19:06;;;;;;;9.38;6.15;;;20.90;99.90;;;;;;5039775;28;20040;-94
2022/07/24 07:21:32;;;;;;;8.82;7.38;;;21.00;99.90;;;;;;5037867;28;20486;-95
2022/07/24 07:23:59;;;;;;;11.55;6.80;;;21.00;99.90;;;;;;5038213;28;20135;-96
2022/07/24 07:26:25;;;;;;;9.15;6.95;;;21.10;99.90;;;;;;5037872;28;20052;-90
2022/07/24 07:28:50;;;;;;;11.55;5.55;;;21.10;99.90;;;;;;5032861;28;20041;-92
2022/07/24 07:31:16;;;;;;;12.35;6.43;;;21.40;99.90;;;;;;5039700;28;20403;-96
2022/07/24 07:33:47;;;;;;;7.07;6.20;;;21.30;99.90;;;;;;5058157;28;20072;-92
2022/07/24 07:36:15;;;;;;;10.05;6.35;;;21.50;99.90;;;;;;5036670;28;20398;-94
2022/07/24 07:38:40;;;;;;;7.32;5.65;;;21.70;99.90;;;;;;5035034;28;20407;-93
2022/07/24 07:41:06;;;;;;;9.32;5.78;;;21.80;99.90;;;;;;5021555;28;20045;-94
2022/07/24 07:43:32;;;;;;;8.93;5.93;;;22.00;99.90;;;;;;5035818;28;20090;-93
2022/07/24 07:45:58;;;;;;;11.93;5.90;;;22.20;99.90;;;;;;5017155;28;20040;-92
2022/07/24 07:48:23;;;;;;;6.63;4.70;;;22.50;99.90;;;;;;5019315;28;20044;-92
2022/07/24 07:50:49;;;;;;;9.73;4.32;;;22.70;99.90;;;;;;5033195;28;20045;-92
2022/07/24 07:53:15;;;;;;;6.03;3.88;;;22.90;99.90;;;;;;5036684;28;20047;-94
2022/07/24 07:55:42;;;;;;;5.40;3.90;;;23.00;99.90;;;;;;5035138;28;20045;-93
2022/07/24 07:58:09;;;;;;;5.00;3.40;;;23.10;99.90;;;;;;5046267;28;20037;-93
2022/07/24 08:00:36;;;;;;;3.95;2.63;;;23.20;99.90;;;;;;5042808;28;20052;-92
2022/07/24 08:03:01;;;;;;;2.83;2.33;;;23.20;99.90;;;;;;5039990;28;20048;-92
2022/07/24 08:05:28;;;;;;;7.53;2.65;;;23.30;99.90;;;;;;5023778;28;20041;-92
2022/07/24 08:07:54;;;;;;;3.13;2.10;;;23.30;99.90;;;;;;5040201;28;20133;-94
2022/07/24 08:10:19;;;;;;;9.50;2.17;;;23.40;99.90;;;;;;5030447;28;20036;-92
2022/07/24 08:12:45;;;;;;;10.02;2.10;;;23.40;99.90;;;;;;5028161;28;20048;-93
2022/07/24 08:15:11;;;;;;;2.50;1.98;;;23.40;99.90;;;;;;5029061;28;20044;-93
2022/07/24 08:17:37;;;;;;;3.45;2.22;;;23.50;99.90;;;;;;5022311;28;20059;-93
2022/07/24 08:20:03;;;;;;;3.28;2.03;;;23.50;99.90;;;;;;5023654;28;20384;-93
2022/07/24 08:22:29;;;;;;;3.25;2.40;;;23.60;99.90;;;;;;5025868;28;20396;-94
2022/07/24 08:24:54;;;;;;;5.15;2.25;;;23.70;99.90;;;;;;5040842;28;20044;-92
2022/07/24 08:27:20;;;;;;;3.47;2.30;;;23.80;99.90;;;;;;5060291;28;20088;-92
2022/07/24 08:29:46;;;;;;;2.33;1.85;;;24.00;99.90;;;;;;5040659;28;20055;-91
2022/07/24 08:32:12;;;;;;;3.28;2.22;;;24.10;99.90;;;;;;5076783;28;20078;-93
2022/07/24 08:34:38;;;;;;;3.08;1.90;;;24.30;99.90;;;;;;5023803;28;20040;-92
2022/07/24 08:37:04;;;;;;;3.70;2.38;;;24.30;99.90;;;;;;5025891;28;20041;-94
2022/07/24 08:39:29;;;;;;;4.13;2.15;;;24.40;99.90;;;;;;5025574;28;20488;-91
2022/07/24 08:41:55;;;;;;;8.98;2.30;;;24.40;99.90;;;;;;5041190;28;20053;-92
2022/07/24 08:44:21;;;;;;;3.42;1.90;;;24.40;99.90;;;;;;5026648;28;20040;-91
2022/07/24 08:46:49;;;;;;;3.05;1.90;;;24.40;99.90;;;;;;5040062;28;20040;-92
2022/07/24 08:49:15;;;;;;;2.92;2.22;;;23.00;99.90;;;;;;5043934;28;20048;-92
2022/07/24 08:51:44;;;;;;;6.72;2.70;;;24.30;99.90;;;;;;5041501;28;20059;-92
2022/07/24 08:54:10;;;;;;;3.70;2.20;;;24.20;99.90;;;;;;5043226;28;20044;-92
2022/07/24 08:56:40;;;;;;;3.72;2.05;;;24.20;99.90;;;;;;5059017;28;20079;-91
2022/07/24 08:59:19;;;;;;;4.60;2.17;;;24.20;99.90;;;;;;5041578;28;20670;-93
2022/07/24 09:01:47;;;;;;;5.90;1.85;;;24.20;99.90;;;;;;5044305;28;20053;-91
2022/07/24 09:04:33;;;;;;;2.92;2.00;;;24.20;99.90;;;;;;5039988;28;20097;-92
2022/07/24 09:07:02;;;;;;;4.40;2.78;;;24.20;99.90;;;;;;5037639;28;20474;-93
2022/07/24 09:09:28;;;;;;;3.22;1.95;;;24.20;99.90;;;;;;5035939;28;20475;-92
2022/07/24 09:12:13;;;;;;;4.10;2.47;;;24.30;99.90;;;;;;5036452;28;20124;-93
2022/07/24 09:14:41;;;;;;;2.30;1.63;;;24.60;99.90;;;;;;5037251;28;20051;-92
2022/07/24 09:17:19;;;;;;;2.85;1.73;;;24.60;99.90;;;;;;5034391;28;20084;-94
2022/07/24 09:19:54;;;;;;;2.72;2.08;;;24.70;99.90;;;;;;5036195;28;20491;-91
2022/07/24 09:22:36;;;;;;;2.83;2.20;;;24.60;99.90;;;;;;5052206;28;20082;-93
2022/07/24 09:25:10;;;;;;;;;;;24.50;99.90;;;;;;5035187;28;20123;-93
2022/07/24 09:27:39;;;;;;;3.22;2.13;;;24.50;99.90;;;;;;5036948;28;20340;-90
2022/07/24 09:30:07;;;;;;;3.88;2.17;;;24.60;99.90;;;;;;5033099;28;20537;-92
2022/07/24 09:32:33;;;;;;;3.53;2.42;;;24.60;99.90;;;;;;5036025;28;20044;-93
2022/07/24 09:35:00;;;;;;;6.55;1.90;;;24.70;99.90;;;;;;5034533;28;20076;-93
2022/07/24 09:37:27;;;;;;;2.97;2.33;;;24.90;99.90;;;;;;5036448;28;20091;-93
2022/07/24 09:40:04;;;;;;;3.45;2.00;;;25.00;99.90;;;;;;5036322;28;20048;-93
2022/07/24 09:42:31;;;;;;;4.13;2.08;;;25.10;99.90;;;;;;5034288;28;20041;-93
2022/07/24 09:45:00;;;;;;;2.92;2.00;;;25.30;99.90;;;;;;5053372;28;20138;-95
2022/07/24 09:47:30;;;;;;;4.80;1.60;;;25.40;99.90;;;;;;5017604;28;20154;-93
2022/07/24 09:50:13;;;;;;;2.63;1.83;;;25.50;99.90;;;;;;5052887;28;20067;-93
2022/07/24 09:52:42;;;;;;;3.58;1.95;;;25.50;99.90;;;;;;5036015;28;20097;-93
2022/07/24 09:55:21;;;;;;;2.60;1.50;;;25.60;99.90;;;;;;5034112;28;20044;-92
2022/07/24 09:57:47;;;;;;;4.68;1.88;;;25.80;99.80;;;;;;5036447;28;20041;-95
2022/07/24 10:00:13;;;;;;;5.30;1.73;;;25.90;99.90;;;;;;5034095;28;20052;-96
2022/07/24 10:02:43;;;;;;;3.72;1.70;;;26.10;99.90;;;;;;5036551;28;20122;-93
2022/07/24 10:05:11;;;;;;;2.30;1.45;;;26.20;99.90;;;;;;5035729;28;20045;-93
2022/07/24 10:07:37;;;;;;;1.90;1.27;;;26.40;99.90;;;;;;5035550;28;20047;-94
2022/07/24 10:10:03;;;;;;;7.65;1.73;;;26.60;99.30;;;;;;5035616;28;20048;-92
2022/07/24 10:12:31;;;;;;;3.90;1.58;;;26.70;98.90;;;;;;5035175;28;20052;-93
2022/07/24 10:15:00;;;;;;;2.35;1.30;;;26.70;98.60;;;;;;5019854;28;20052;-92
2022/07/24 10:18:09;;;;;;;3.97;1.70;;;26.80;98.30;;;;;;5033928;28;20041;-93
2022/07/24 10:20:40;;;;;;;2.80;1.17;;;26.80;95.10;;;;;;5023909;28;20099;-94
2022/07/24 10:23:07;;;;;;;1.98;1.60;;;27.00;98.10;;;;;;5036516;28;20033;-92
2022/07/24 10:25:54;;;;;;;3.10;1.35;;;27.10;97.90;;;;;;5033071;28;20076;-93
2022/07/24 10:28:39;;;;;;;2.47;1.67;;;27.20;94.70;;;;;;5035668;28;20157;-94
2022/07/24 10:31:07;;;;;;;5.03;1.83;;;27.10;94.30;;;;;;5033797;28;20044;-95
2022/07/24 10:33:34;;;;;;;1.80;1.40;;;27.00;96.60;;;;;;5034064;28;20064;-92
2022/07/24 10:36:03;;;;;;;2.58;1.38;;;26.90;96.80;;;;;;5035292;28;20149;-94
2022/07/24 10:38:41;;;;;;;2.25;1.30;;;26.80;96.90;;;;;;5032840;28;20510;-93
2022/07/24 10:41:20;;;;;;;2.58;1.45;;;26.80;96.50;;;;;;5051581;28;20055;-94
2022/07/24 10:44:17;;;;;;;2.55;1.35;;;26.90;96.30;;;;;;5034169;28;20048;-95
2022/07/24 10:47:00;;;;;;;1.52;1.17;;;27.00;96.00;;;;;;5033357;28;20036;-95
2022/07/24 10:49:40;;;;;;;3.40;1.20;;;27.00;95.10;;;;;;5035487;28;20053;-93
2022/07/24 10:52:08;;;;;;;3.78;1.50;;;27.00;95.10;;;;;;5036723;28;20036;-91
2022/07/24 10:54:33;;;;;;;2.30;1.45;;;27.20;96.30;;;;;;5038970;28;20116;-94
2022/07/24 10:56:59;;;;;;;2.67;1.50;;;27.50;94.90;;;;;;5020035;28;20075;-92
2022/07/24 10:59:41;;;;;;;2.88;1.50;;;27.60;93.90;;;;;;5021356;28;20059;-94
2022/07/24 11:02:29;;;;;;;2.45;1.33;;;27.70;90.90;;;;;;5042262;28;20063;-91
2022/07/24 11:05:29;;;;;;;11.00;1.58;;;27.70;89.90;;;;;;5038103;28;20098;-93
2022/07/24 11:08:20;;;;;;;2.28;1.33;;;27.60;90.60;;;;;;5040078;28;20040;-92
2022/07/24 11:10:53;;;;;;;2.28;1.25;;;27.50;92.50;;;;;;5036182;28;20048;-90
2022/07/24 11:13:31;;;;;;;2.88;1.08;;;27.50;93.00;;;;;;5033056;28;20047;-89
2022/07/24 11:16:14;;;;;;;1.98;1.30;;;27.40;90.00;;;;;;5035649;28;20044;-91
2022/07/24 11:18:42;;;;;;;2.03;1.23;;;27.20;91.70;;;;;;5034387;28;20051;-91
2022/07/24 11:21:08;;;;;;;4.28;1.83;;;27.20;92.50;;;;;;5033444;28;20044;-91
2022/07/24 11:23:35;;;;;;;2.40;1.45;;;27.30;92.70;;;;;;5035273;28;20051;-91
2022/07/24 11:26:31;;;;;;;3.05;1.60;;;27.40;93.10;;;;;;5033556;28;20100;-92
2022/07/24 11:29:17;;;;;;;8.20;1.88;;;27.50;91.40;;;;;;5035143;28;20116;-92
2022/07/24 11:31:45;;;;;;;2.90;1.42;;;27.70;91.90;;;;;;5034746;28;20475;-92
2022/07/24 11:34:11;;;;;;;2.95;1.40;;;27.90;92.40;;;;;;5032247;28;20390;-93
2022/07/24 11:36:42;;;;;;;2.33;1.38;;;28.10;91.80;;;;;;5034612;28;20557;-92
2022/07/24 11:39:08;;;;;;;2.33;1.55;;;28.30;90.50;;;;;;5031997;28;20208;-91
2022/07/24 11:41:49;;;;;;;3.45;1.30;;;28.40;88.00;;;;;;5034363;28;20044;-91
2022/07/24 11:44:23;;;;;;;2.03;1.48;;;28.40;83.20;;;;;;5037380;28;20142;-92
2022/07/24 11:46:49;;;;;;;2.05;1.50;;;28.40;82.10;;;;;;5037586;28;20041;-92
2022/07/24 11:49:14;;;;;;;2.65;1.58;;;28.40;82.60;;;;;;5055360;28;20109;-92
2022/07/24 11:51:42;;;;;;;2.08;1.58;;;28.50;83.90;;;;;;5019768;28;20044;-91
2022/07/24 11:54:09;;;;;;;1.80;1.15;;;28.70;81.40;;;;;;5038408;28;20045;-90
2022/07/24 11:56:34;;;;;;;4.70;1.30;;;29.00;79.80;;;;;;5020910;28;20113;-92
2022/07/24 11:59:00;;;;;;;2.03;1.23;;;29.10;77.80;;;;;;5037105;28;20480;-91
2022/07/24 12:01:26;;;;;;;2.83;1.33;;;29.10;75.80;;;;;;5037580;28;20040;-92
2022/07/24 12:03:53;;;;;;;1.45;1.00;;;29.10;72.90;;;;;;5035589;28;20056;-92
2022/07/24 12:06:24;;;;;;;2.03;1.10;;;29.00;73.60;;;;;;5038846;28;20051;-93
2022/07/24 12:08:49;;;;;;;2.75;1.23;;;28.90;72.20;;;;;;5036081;28;20040;-91
2022/07/24 12:11:22;;;;;;;2.63;1.65;;;28.90;71.40;;;;;;5037888;28;20044;-91
2022/07/24 12:13:51;;;;;;;3.50;1.25;;;28.90;68.40;;;;;;5036623;28;20049;-93
2022/07/24 12:16:28;;;;;;;1.67;1.15;;;28.80;70.70;;;;;;5037061;28;20043;-92
2022/07/24 12:19:30;;;;;;;2.13;1.30;;;28.70;71.60;;;;;;5037780;28;20091;-90
2022/07/24 12:21:56;;;;;;;4.43;1.50;;;28.70;74.60;;;;;;4959992;28;20104;-88
2022/07/24 12:24:22;;;;;;;6.97;1.30;;;28.70;74.80;;;;;;5017812;28;20041;-89
2022/07/24 12:26:56;;;;;;;2.78;1.42;;;28.70;74.10;;;;;;5042472;28;20087;-91
2022/07/24 12:29:23;;;;;;;2.75;1.30;;;28.70;71.50;;;;;;5036791;28;20573;-92
2022/07/24 12:31:52;;;;;;;2.88;1.52;;;28.80;74.20;;;;;;5036490;28;20047;-94
2022/07/24 12:34:18;;;;;;;1.65;1.15;;;28.80;73.00;;;;;;5036040;28;20059;-91
2022/07/24 12:36:44;;;;;;;2.38;1.27;;;28.80;73.40;;;;;;5053775;28;20041;-91
2022/07/24 12:39:11;;;;;;;3.63;1.63;;;28.90;73.60;;;;;;5018398;28;20060;-90
2022/07/24 12:41:43;;;;;;;5.30;1.17;;;29.00;72.60;;;;;;5054750;28;20070;-93
2022/07/24 12:44:09;;;;;;;2.42;1.33;;;29.10;68.20;;;;;;5037133;28;20041;-93
2022/07/24 12:46:44;;;;;;;2.17;1.27;;;29.10;67.20;;;;;;5036740;28;20044;-90
2022/07/24 12:49:17;;;;;;;2.60;1.50;;;29.10;67.30;;;;;;5038491;28;20051;-93